createdAt,value
2023-03-06T00:02:49.601Z,159517.44
2023-03-06T00:05:57.170Z,159507.03
2023-03-06T00:09:01.222Z,159499.25
2023-03-06T00:12:05.516Z,159510.94
2023-03-06T00:15:10.833Z,159510.94
2023-03-06T00:18:15.063Z,159503.09
2023-03-06T00:21:18.932Z,159516.16
2023-03-06T00:24:22.905Z,159526.56
2023-03-06T00:27:27.329Z,159521.34
2023-03-06T00:30:31.807Z,159520.06
2023-03-06T00:33:35.412Z,159520.06
2023-03-06T00:36:39.464Z,159503.09
2023-03-06T00:39:43.888Z,159496.63
2023-03-06T00:42:47.906Z,159495.34
2023-03-06T00:45:52.013Z,159510.94
2023-03-06T00:48:56.095Z,159509.63
2023-03-06T00:52:00.654Z,159503.09
2023-03-06T00:55:06.048Z,159480.97
2023-03-06T00:58:10.190Z,159494.03
2023-03-06T01:01:14.307Z,159492.69
2023-03-06T01:04:18.343Z,159484.88
2023-03-06T01:07:22.989Z,159492.69
2023-03-06T01:10:27.576Z,159490.09
2023-03-06T01:13:31.932Z,159474.47
2023-03-06T01:16:36.270Z,159482.28
2023-03-06T01:19:40.228Z,159480.97
2023-03-06T01:22:44.429Z,159479.66
2023-03-06T01:25:48.963Z,159469.25
2023-03-06T01:28:53.352Z,159461.41
2023-03-06T01:31:57.243Z,159479.66
2023-03-06T01:35:01.231Z,159461.41
2023-03-06T01:38:05.502Z,159469.25
2023-03-06T01:41:10.931Z,159467.91
2023-03-06T01:44:14.964Z,159471.81
2023-03-06T01:47:19.213Z,159461.41
2023-03-06T01:50:23.514Z,159477.06
2023-03-06T01:53:28.299Z,159453.59
2023-03-06T01:56:33.092Z,159448.38
2023-03-06T01:59:38.594Z,159435.38
2023-03-06T02:02:49.357Z,159437.94
2023-03-06T02:05:54.318Z,159443.13
2023-03-06T02:08:58.273Z,159431.44
2023-03-06T02:12:06.112Z,159418.41
2023-03-06T02:15:14.595Z,159418.41
2023-03-06T02:18:18.869Z,159405.34
2023-03-06T02:21:32.090Z,159401.44
2023-03-06T02:24:54.119Z,159410.59
2023-03-06T02:27:58.432Z,159410.59
2023-03-06T02:31:02.434Z,159400.19
2023-03-06T02:34:15.818Z,159406.69
2023-03-06T02:37:20.316Z,159405.34
2023-03-06T02:40:25.441Z,159405.34
2023-03-06T02:43:32.962Z,159396.25
2023-03-06T02:46:37.285Z,159388.44
2023-03-06T02:49:41.332Z,159374.06
2023-03-06T02:52:45.601Z,159383.22
2023-03-06T02:55:50.550Z,159383.22
2023-03-06T02:58:54.356Z,159383.22
2023-03-06T03:01:58.612Z,159366.25
2023-03-06T03:05:03.189Z,159361.09
2023-03-06T03:08:07.255Z,159379.31
2023-03-06T03:11:12.223Z,159359.75
2023-03-06T03:14:16.650Z,159363.66
2023-03-06T03:17:20.839Z,159349.34
2023-03-06T03:20:25.145Z,159344.13
2023-03-06T03:23:29.528Z,159349.34
2023-03-06T03:26:33.684Z,159324.56
2023-03-06T03:29:37.965Z,159315.44
2023-03-06T03:32:42.339Z,159315.44
2023-03-06T03:35:46.775Z,159305.03
2023-03-06T03:38:50.869Z,159318.09
2023-03-06T03:41:55.107Z,159303.72
2023-03-06T03:44:59.282Z,159312.84
2023-03-06T03:48:03.396Z,159303.72
2023-03-06T03:51:13.433Z,159289.41
2023-03-06T03:54:17.367Z,159315.44
2023-03-06T03:57:21.547Z,159301.13
2023-03-06T04:00:25.691Z,159297.22
2023-03-06T04:03:29.990Z,159297.22
2023-03-06T04:06:34.329Z,159286.75
2023-03-06T04:09:38.438Z,159292.00
2023-03-06T04:12:42.501Z,159277.69
2023-03-06T04:15:47.286Z,159272.50
2023-03-06T04:18:51.594Z,159286.75
2023-03-06T04:21:55.678Z,159277.69
2023-03-06T04:24:59.870Z,159280.31
2023-03-06T04:28:04.481Z,159272.50
2023-03-06T04:31:08.591Z,159265.94
2023-03-06T04:34:12.385Z,159263.38
2023-03-06T04:37:22.277Z,159260.72
2023-03-06T04:40:32.026Z,159239.91
2023-03-06T04:43:36.128Z,159216.41
2023-03-06T04:46:40.293Z,159209.94
2023-03-06T04:49:44.658Z,159204.69
2023-03-06T04:52:48.524Z,159193.03
2023-03-06T04:55:52.866Z,159195.59
2023-03-06T04:58:56.804Z,159186.47
2023-03-06T05:02:01.028Z,159195.59
2023-03-06T05:05:05.573Z,159196.94
2023-03-06T05:08:15.239Z,159198.19
2023-03-06T05:11:19.152Z,159185.22
2023-03-06T05:14:23.099Z,159207.28
2023-03-06T05:17:27.345Z,159196.94
2023-03-06T05:20:31.312Z,159195.59
2023-03-06T05:23:38.605Z,159203.38
2023-03-06T05:26:42.971Z,159194.34
2023-03-06T05:29:47.404Z,159187.78
2023-03-06T05:32:51.417Z,159179.97
2023-03-06T05:35:55.573Z,159169.56
2023-03-06T05:38:59.762Z,159165.63
2023-03-06T05:42:04.405Z,159152.63
2023-03-06T05:45:09.224Z,159144.81
2023-03-06T05:48:13.841Z,159168.25
2023-03-06T05:51:17.960Z,159186.47
2023-03-06T05:54:24.342Z,159203.38
2023-03-06T05:57:28.714Z,159206.00
2023-03-06T06:00:32.637Z,159224.22
2023-03-06T06:03:36.924Z,159226.88
2023-03-06T06:06:40.917Z,159237.28
2023-03-06T06:09:45.633Z,159254.22
2023-03-06T06:12:49.901Z,159264.69
2023-03-06T06:15:54.342Z,159272.50
2023-03-06T06:18:59.033Z,159276.41
2023-03-06T06:22:03.775Z,159281.59
2023-03-06T06:25:08.432Z,159288.06
2023-03-06T06:28:12.799Z,159298.47
2023-03-06T06:31:16.862Z,159303.72
2023-03-06T06:34:22.233Z,159315.44
2023-03-06T06:37:26.565Z,159312.84
2023-03-06T06:40:30.640Z,159329.81
2023-03-06T06:43:35.231Z,159340.22
2023-03-06T06:47:20.653Z,159357.16
2023-03-06T06:50:04.128Z,159359.75
2023-03-06T06:53:08.400Z,159368.84
2023-03-06T06:56:12.720Z,159394.94
2023-03-06T06:59:17.653Z,159405.34
2023-03-06T07:02:21.909Z,159419.72
2023-03-06T07:05:25.835Z,159434.09
2023-03-06T07:08:30.698Z,159431.44
2023-03-06T07:11:35.085Z,159432.78
2023-03-06T07:14:41.372Z,159454.88
2023-03-06T07:17:45.261Z,159483.59
2023-03-06T07:20:49.482Z,159474.47
2023-03-06T07:23:54.310Z,159491.44
2023-03-06T07:26:58.131Z,159501.84
2023-03-06T07:30:01.927Z,159492.69
2023-03-06T07:33:06.104Z,159492.69
2023-03-06T07:36:12.839Z,159495.34
2023-03-06T07:39:18.498Z,159484.88
2023-03-06T07:42:22.791Z,159496.63
2023-03-06T07:45:27.417Z,159520.06
2023-03-06T07:48:31.457Z,159508.34
2023-03-06T07:51:35.377Z,159510.94
2023-03-06T07:54:39.854Z,159504.38
2023-03-06T07:57:43.837Z,159505.69
2023-03-06T08:00:47.964Z,159499.25
2023-03-06T08:03:52.523Z,159512.25
2023-03-06T08:06:59.653Z,159477.06
2023-03-06T08:10:05.040Z,159491.44
2023-03-06T08:13:09.229Z,159482.28
2023-03-06T08:16:13.698Z,159503.09
2023-03-06T08:19:17.938Z,159497.94
2023-03-06T08:22:21.798Z,159469.25
2023-03-06T08:25:25.682Z,159447.03
2023-03-06T08:28:29.847Z,159461.41
2023-03-06T08:31:36.231Z,159464.00
2023-03-06T08:34:41.106Z,159469.25
2023-03-06T08:37:45.117Z,159479.66
2023-03-06T08:40:49.169Z,159503.09
2023-03-06T08:43:53.202Z,159484.88
2023-03-06T08:46:57.653Z,159505.69
2023-03-06T08:50:02.073Z,159531.81
2023-03-06T08:53:06.053Z,159548.78
2023-03-06T08:56:30.581Z,159566.97
2023-03-06T08:59:34.498Z,159589.16
2023-03-06T09:02:38.761Z,159591.75
2023-03-06T09:05:42.902Z,159595.66
2023-03-06T09:08:47.197Z,159624.31
2023-03-06T09:11:51.275Z,159664.81
2023-03-06T09:14:55.620Z,159658.25
2023-03-06T09:17:59.742Z,159636.09
2023-03-06T09:21:05.369Z,159647.84
2023-03-06T09:24:09.375Z,159636.09
2023-03-06T09:27:13.516Z,159624.31
2023-03-06T09:30:18.578Z,159638.69
2023-03-06T09:33:22.464Z,159664.81
2023-03-06T09:36:26.928Z,159685.66
2023-03-06T09:39:31.461Z,159714.38
2023-03-06T09:42:36.199Z,159763.91
2023-03-06T09:45:40.400Z,159826.50
2023-03-06T09:49:14.077Z,159925.66
2023-03-06T09:52:33.854Z,159985.66
2023-03-06T09:55:40.183Z,160011.75
2023-03-06T09:58:49.726Z,160009.13
2023-03-06T10:02:31.206Z,160013.03
2023-03-06T10:05:41.003Z,160037.84
2023-03-06T10:08:58.196Z,160026.09
2023-03-06T10:12:06.657Z,160058.72
2023-03-06T10:15:18.070Z,160063.97
2023-03-06T10:18:22.375Z,160043.03
2023-03-06T10:21:44.464Z,160006.50
2023-03-06T10:25:08.961Z,159997.41
2023-03-06T10:28:19.622Z,159977.84
2023-03-06T10:31:26.878Z,159938.66
2023-03-06T10:34:38.746Z,159887.81
2023-03-06T10:37:42.806Z,159890.41
2023-03-06T10:41:08.242Z,159906.06
2023-03-06T10:44:12.047Z,159979.16
2023-03-06T10:47:36.850Z,160027.44
2023-03-06T10:50:41.179Z,159996.16
2023-03-06T10:53:52.152Z,159986.97
2023-03-06T10:56:56.079Z,159986.97
2023-03-06T11:00:24.747Z,160013.03
2023-03-06T11:03:29.709Z,160079.63
2023-03-06T11:06:37.720Z,160146.19
2023-03-06T11:10:04.819Z,160195.75
2023-03-06T11:13:37.290Z,160228.38
2023-03-06T11:16:52.660Z,160268.88
2023-03-06T11:20:21.583Z,160322.44
2023-03-06T11:23:46.773Z,160344.59
2023-03-06T11:26:58.272Z,160328.97
2023-03-06T11:30:14.803Z,160276.72
2023-03-06T11:33:54.264Z,160218.00
2023-03-06T11:37:32.298Z,160164.44
2023-03-06T11:40:54.058Z,160110.97
2023-03-06T11:44:06.305Z,160113.56
2023-03-06T11:47:10.750Z,160147.50
2023-03-06T11:50:22.892Z,160169.69
2023-03-06T11:53:36.953Z,160228.38
2023-03-06T11:57:01.692Z,160278.00
2023-03-06T12:00:22.694Z,160332.81
2023-03-06T12:03:44.026Z,160332.81
2023-03-06T12:07:22.010Z,160322.44
2023-03-06T12:10:29.049Z,160236.25
2023-03-06T12:13:49.817Z,160184.03
2023-03-06T12:17:06.953Z,160135.75
2023-03-06T12:20:14.045Z,160112.22
2023-03-06T12:23:55.119Z,160061.34
2023-03-06T12:27:14.572Z,160084.81
2023-03-06T12:30:38.544Z,160152.75
2023-03-06T12:33:47.336Z,160163.13
2023-03-06T12:37:14.097Z,160090.06
2023-03-06T12:40:28.858Z,159954.38
2023-03-06T12:43:43.128Z,159898.25
2023-03-06T12:46:54.060Z,159902.16
2023-03-06T12:50:13.437Z,159877.34
2023-03-06T12:53:29.045Z,159910.00
2023-03-06T12:56:33.824Z,159895.66
2023-03-06T12:59:44.588Z,159873.44
2023-03-06T13:03:04.835Z,159861.72
2023-03-06T13:06:44.953Z,159921.72
2023-03-06T13:10:26.921Z,159917.78
2023-03-06T13:13:43.168Z,159887.81
2023-03-06T13:16:47.337Z,159870.88
2023-03-06T13:20:13.425Z,159851.31
2023-03-06T13:23:32.276Z,159893.00
2023-03-06T13:26:36.061Z,159872.22
2023-03-06T13:29:39.777Z,159825.22
2023-03-06T13:32:43.761Z,159748.22
2023-03-06T13:35:52.798Z,159694.75
2023-03-06T13:39:00.455Z,159645.22
2023-03-06T13:42:07.196Z,159653.06
2023-03-06T13:45:25.817Z,159671.31
2023-03-06T13:48:44.740Z,159715.63
2023-03-06T13:51:52.409Z,159740.38
2023-03-06T13:55:14.861Z,159808.25
2023-03-06T13:58:44.924Z,159850.00
2023-03-06T14:02:19.848Z,159855.22
2023-03-06T14:05:25.564Z,159881.25
2023-03-06T14:08:33.049Z,159921.72
2023-03-06T14:11:39.249Z,159964.75
2023-03-06T14:14:50.272Z,159988.25
2023-03-06T14:18:14.010Z,160006.50
2023-03-06T14:21:31.946Z,160023.50
2023-03-06T14:24:43.354Z,160046.97
2023-03-06T14:27:51.344Z,160041.78
2023-03-06T14:30:56.905Z,160045.69
2023-03-06T14:34:15.884Z,160031.34
2023-03-06T14:37:24.540Z,160037.84
2023-03-06T14:40:43.853Z,160048.28
2023-03-06T14:43:47.726Z,160057.44
2023-03-06T14:47:21.488Z,160063.97
2023-03-06T14:50:28.941Z,160071.78
2023-03-06T14:53:34.519Z,160062.63
2023-03-06T14:56:42.944Z,160058.72
2023-03-06T14:59:55.960Z,160045.69
2023-03-06T15:03:00.410Z,160061.34
2023-03-06T15:06:05.654Z,160057.44
2023-03-06T15:09:20.410Z,160054.78
2023-03-06T15:12:24.201Z,160044.38
2023-03-06T15:15:31.257Z,160045.69
2023-03-06T15:18:39.042Z,160050.88
2023-03-06T15:21:48.329Z,160043.03
2023-03-06T15:24:53.305Z,160022.19
2023-03-06T15:28:00.532Z,160011.75
2023-03-06T15:31:17.557Z,160009.13
2023-03-06T15:34:25.763Z,160002.59
2023-03-06T15:37:29.550Z,160003.94
2023-03-06T15:40:34.140Z,160000.06
2023-03-06T15:43:40.607Z,159994.81
2023-03-06T15:46:44.401Z,159980.44
2023-03-06T15:49:57.846Z,159977.84
2023-03-06T15:53:01.655Z,159958.31
2023-03-06T15:56:05.901Z,159975.25
2023-03-06T15:59:23.921Z,159975.25
2023-03-06T16:02:27.800Z,159956.97
2023-03-06T16:05:31.987Z,159919.09
2023-03-06T16:08:36.193Z,159947.81
2023-03-06T16:11:46.786Z,159925.66
2023-03-06T16:14:51.196Z,159910.00
2023-03-06T16:17:59.921Z,159899.56
2023-03-06T16:21:06.345Z,159889.09
2023-03-06T16:24:11.903Z,159899.56
2023-03-06T16:27:23.376Z,159896.97
2023-03-06T16:30:30.729Z,159893.00
2023-03-06T16:33:34.546Z,159870.88
2023-03-06T16:36:38.758Z,159860.41
2023-03-06T16:39:42.575Z,159836.91
2023-03-06T16:42:46.993Z,159844.75
2023-03-06T16:45:51.403Z,159816.06
2023-03-06T16:48:55.489Z,159809.56
2023-03-06T16:52:00.517Z,159806.94
2023-03-06T16:55:04.757Z,159827.78
2023-03-06T16:58:09.078Z,159784.75
2023-03-06T17:01:18.327Z,159758.69
2023-03-06T17:04:22.564Z,159756.09
2023-03-06T17:07:26.748Z,159765.19
2023-03-06T17:10:31.176Z,159784.75
2023-03-06T17:13:35.223Z,159769.09
2023-03-06T17:16:40.394Z,159787.34
2023-03-06T17:19:48.960Z,159774.34
2023-03-06T17:22:53.311Z,159770.44
2023-03-06T17:26:05.207Z,159782.13
2023-03-06T17:29:09.661Z,159773.06
2023-03-06T17:32:14.333Z,159753.44
2023-03-06T17:35:18.716Z,159757.38
2023-03-06T17:38:23.042Z,159724.78
2023-03-06T17:41:27.423Z,159730.03
2023-03-06T17:44:31.785Z,159730.03
2023-03-06T17:47:35.980Z,159720.88
2023-03-06T17:50:40.286Z,159724.78
2023-03-06T17:53:44.281Z,159675.22
2023-03-06T17:56:48.612Z,159662.19
2023-03-06T17:59:53.102Z,159613.94
2023-03-06T18:02:57.328Z,159585.25
2023-03-06T18:06:03.500Z,159585.25
2023-03-06T18:09:09.982Z,159572.19
2023-03-06T18:12:13.715Z,159566.97
2023-03-06T18:15:17.893Z,159563.09
2023-03-06T18:18:22.554Z,159564.41
2023-03-06T18:21:26.590Z,159580.00
2023-03-06T18:24:30.970Z,159596.97
2023-03-06T18:27:35.773Z,159589.16
2023-03-06T18:30:42.328Z,159582.66
2023-03-06T18:33:49.902Z,159581.34
2023-03-06T18:36:54.154Z,159581.34
2023-03-06T18:39:58.068Z,159583.94
2023-03-06T18:43:02.903Z,159572.19
2023-03-06T18:46:07.252Z,159564.41
2023-03-06T18:49:12.630Z,159568.28
2023-03-06T18:52:16.608Z,159563.09
2023-03-06T18:55:20.775Z,159568.28
2023-03-06T18:58:25.088Z,159564.41
2023-03-06T19:01:31.167Z,159568.28
2023-03-06T19:04:37.462Z,159589.16
2023-03-06T19:07:41.327Z,159611.38
2023-03-06T19:10:46.302Z,159583.94
2023-03-06T19:13:50.593Z,159563.09
2023-03-06T19:16:55.134Z,159529.16
2023-03-06T19:19:59.278Z,159473.16
2023-03-06T19:23:03.284Z,159440.53
2023-03-06T19:26:08.067Z,159406.69
2023-03-06T19:29:12.378Z,159393.63
2023-03-06T19:32:16.799Z,159370.16
2023-03-06T19:35:20.809Z,159344.13
2023-03-06T19:38:25.074Z,159344.13
2023-03-06T19:41:29.139Z,159349.34
2023-03-06T19:44:33.557Z,159344.13
2023-03-06T19:47:38.010Z,159341.53
2023-03-06T19:50:42.289Z,159332.41
2023-03-06T19:53:46.318Z,159328.50
2023-03-06T19:56:51.251Z,159320.66
2023-03-06T19:59:57.498Z,159302.41
2023-03-06T20:03:02.611Z,159298.47
2023-03-06T20:06:09.165Z,159271.19
2023-03-06T20:09:13.266Z,159263.38
2023-03-06T20:12:17.669Z,159235.94
2023-03-06T20:15:22.912Z,159234.69
2023-03-06T20:18:27.221Z,159203.38
2023-03-06T20:21:35.357Z,159182.56
2023-03-06T20:24:39.243Z,159161.72
2023-03-06T20:27:43.212Z,159160.44
2023-03-06T20:30:47.564Z,159151.31
2023-03-06T20:33:52.848Z,159143.50
2023-03-06T20:36:58.034Z,159144.81
2023-03-06T20:40:01.806Z,159131.78
2023-03-06T20:43:06.415Z,159127.88
2023-03-06T20:46:11.934Z,159112.19
2023-03-06T20:49:16.320Z,159104.38
2023-03-06T20:52:20.721Z,159105.72
2023-03-06T20:55:25.421Z,159116.09
2023-03-06T20:58:31.721Z,159107.03
2023-03-06T21:01:39.027Z,159104.38
2023-03-06T21:04:43.563Z,159096.56
2023-03-06T21:07:47.654Z,159086.22
2023-03-06T21:10:51.720Z,159091.34
2023-03-06T21:13:55.980Z,159081.00
2023-03-06T21:17:01.277Z,159075.78
2023-03-06T21:20:06.477Z,159074.50
2023-03-06T21:23:10.779Z,159070.59
2023-03-06T21:26:20.180Z,159067.97
2023-03-06T21:29:24.091Z,159077.09
2023-03-06T21:32:29.186Z,159070.59
2023-03-06T21:35:38.075Z,159084.91
2023-03-06T21:38:42.065Z,159090.06
2023-03-06T21:41:46.285Z,159108.28
2023-03-06T21:44:50.645Z,159127.88
2023-03-06T21:47:54.897Z,159134.38
2023-03-06T21:51:11.013Z,159123.97
2023-03-06T21:54:14.924Z,159121.34
2023-03-06T21:57:19.099Z,159125.25
2023-03-06T22:00:24.490Z,159127.88
2023-03-06T22:03:29.164Z,159130.47
2023-03-06T22:06:33.407Z,159140.88
2023-03-06T22:09:37.461Z,159130.47
2023-03-06T22:12:41.887Z,159118.75
2023-03-06T22:15:53.168Z,159125.25
2023-03-06T22:18:57.620Z,159123.97
2023-03-06T22:22:01.532Z,159104.38
2023-03-06T22:25:05.965Z,159095.31
2023-03-06T22:28:09.740Z,159096.56
2023-03-06T22:31:16.513Z,159094.00
2023-03-06T22:34:20.592Z,159104.38
2023-03-06T22:37:24.768Z,159112.19
2023-03-06T22:40:28.893Z,159108.28
2023-03-06T22:43:33.399Z,159110.94
2023-03-06T22:46:38.592Z,159135.69
2023-03-06T22:49:42.729Z,159144.81
2023-03-06T22:52:46.815Z,159159.13
2023-03-06T22:55:50.729Z,159165.63
2023-03-06T22:58:54.795Z,159176.06
2023-03-06T23:01:58.812Z,159193.03
2023-03-06T23:05:03.716Z,159198.19
2023-03-06T23:08:08.289Z,159208.59
2023-03-06T23:11:15.207Z,159220.31
2023-03-06T23:14:19.838Z,159194.34
2023-03-06T23:17:23.708Z,159215.16
2023-03-06T23:20:28.335Z,159225.56
2023-03-06T23:23:32.516Z,159217.72
2023-03-06T23:26:37.138Z,159219.06
2023-03-06T23:29:40.783Z,159217.72
2023-03-06T23:32:46.022Z,159235.94
2023-03-06T23:35:50.288Z,159268.59
2023-03-06T23:38:54.923Z,159239.91
2023-03-06T23:41:59.331Z,159271.19
2023-03-06T23:45:03.342Z,159269.84
2023-03-06T23:48:07.942Z,159268.59
2023-03-06T23:51:17.495Z,159267.28
2023-03-06T23:54:21.195Z,159276.41
2023-03-06T23:57:25.290Z,159301.13
